createdAt,value
2022-08-28T00:01:02.346Z,100.00
2022-08-28T00:03:30.500Z,100.00
2022-08-28T00:05:58.308Z,100.00
2022-08-28T00:08:28.005Z,100.00
2022-08-28T00:10:55.629Z,100.00
2022-08-28T00:13:25.451Z,100.00
2022-08-28T00:15:56.431Z,100.00
2022-08-28T00:18:24.248Z,100.00
2022-08-28T00:20:52.575Z,100.00
2022-08-28T00:23:20.428Z,100.00
2022-08-28T00:25:49.459Z,100.00
2022-08-28T00:28:24.354Z,100.00
2022-08-28T00:30:54.426Z,100.00
2022-08-28T00:33:23.731Z,100.00
2022-08-28T00:35:51.732Z,100.00
2022-08-28T00:38:20.991Z,100.00
2022-08-28T00:40:52.146Z,100.00
2022-08-28T00:43:27.405Z,100.00
2022-08-28T00:45:55.002Z,100.00
2022-08-28T00:48:22.911Z,100.00
2022-08-28T00:51:08.463Z,100.00
2022-08-28T00:53:36.088Z,100.00
2022-08-28T00:56:12.268Z,100.00
2022-08-28T00:58:42.108Z,100.00
2022-08-28T01:01:09.985Z,100.00
2022-08-28T01:03:38.036Z,100.00
2022-08-28T01:06:06.618Z,100.00
2022-08-28T01:08:35.324Z,100.00
2022-08-28T01:11:06.131Z,100.00
2022-08-28T01:13:34.368Z,100.00
2022-08-28T01:16:03.724Z,100.00
2022-08-28T01:18:32.707Z,100.00
2022-08-28T01:21:09.347Z,100.00
2022-08-28T01:23:52.120Z,100.00
2022-08-28T01:26:20.281Z,100.00
2022-08-28T01:28:48.295Z,100.00
2022-08-28T01:31:16.657Z,100.00
2022-08-28T01:33:45.921Z,100.00
2022-08-28T01:36:14.514Z,100.00
2022-08-28T01:38:43.783Z,100.00
2022-08-28T01:41:14.523Z,100.00
2022-08-28T01:43:42.786Z,100.00
2022-08-28T01:46:12.162Z,100.00
2022-08-28T01:48:42.619Z,100.00
2022-08-28T01:51:10.628Z,100.00
2022-08-28T01:53:41.576Z,100.00
2022-08-28T01:56:16.696Z,100.00
2022-08-28T01:58:44.682Z,100.00
2022-08-28T02:01:13.635Z,100.00
2022-08-28T02:03:43.056Z,100.00
2022-08-28T02:06:11.326Z,100.00
2022-08-28T02:08:39.127Z,100.00
2022-08-28T02:11:08.666Z,100.00
2022-08-28T02:13:39.251Z,100.00
2022-08-28T02:16:09.865Z,100.00
2022-08-28T02:18:38.236Z,100.00
2022-08-28T02:21:06.329Z,100.00
2022-08-28T02:23:33.935Z,100.00
2022-08-28T02:26:01.579Z,100.00
2022-08-28T02:28:29.236Z,100.00
2022-08-28T02:30:58.224Z,100.00
2022-08-28T02:33:25.953Z,100.00
2022-08-28T02:35:53.539Z,100.00
2022-08-28T02:38:22.503Z,100.00
2022-08-28T02:40:50.089Z,100.00
2022-08-28T02:43:17.930Z,100.00
2022-08-28T02:45:45.590Z,100.00
2022-08-28T02:48:17.560Z,100.00
2022-08-28T02:50:46.183Z,100.00
2022-08-28T02:53:13.990Z,100.00
2022-08-28T02:55:41.731Z,100.00
2022-08-28T02:58:09.606Z,100.00
2022-08-28T03:00:37.315Z,100.00
2022-08-28T03:03:05.266Z,100.00
2022-08-28T03:05:34.277Z,100.00
2022-08-28T03:08:02.074Z,100.00
2022-08-28T03:10:29.663Z,100.00
2022-08-28T03:12:57.291Z,100.00
2022-08-28T03:15:24.907Z,100.00
2022-08-28T03:17:52.491Z,100.00
2022-08-28T03:20:20.322Z,100.00
2022-08-28T03:23:06.625Z,100.00
2022-08-28T03:25:34.283Z,100.00
2022-08-28T03:28:01.886Z,100.00
2022-08-28T03:30:30.091Z,100.00
2022-08-28T03:32:57.727Z,100.00
2022-08-28T03:35:25.326Z,100.00
2022-08-28T03:37:54.295Z,100.00
2022-08-28T03:40:22.228Z,100.00
2022-08-28T03:42:53.288Z,100.00
2022-08-28T03:45:21.821Z,100.00
2022-08-28T03:47:49.523Z,100.00
2022-08-28T03:50:19.802Z,100.00
2022-08-28T03:52:47.544Z,100.00
2022-08-28T03:55:18.753Z,100.00
2022-08-28T03:57:46.763Z,100.00
2022-08-28T04:00:15.889Z,100.00
2022-08-28T04:02:44.366Z,100.00
2022-08-28T04:05:12.050Z,100.00
2022-08-28T04:07:40.033Z,100.00
2022-08-28T04:10:08.776Z,100.00
2022-08-28T04:12:37.918Z,100.00
2022-08-28T04:15:07.250Z,100.00
2022-08-28T04:17:34.982Z,100.00
2022-08-28T04:20:02.596Z,100.00
2022-08-28T04:22:31.044Z,100.00
2022-08-28T04:24:58.659Z,100.00
2022-08-28T04:27:26.243Z,100.00
2022-08-28T04:29:55.146Z,100.00
2022-08-28T04:32:23.652Z,100.00
2022-08-28T04:34:51.611Z,100.00
2022-08-28T04:37:19.879Z,100.00
2022-08-28T04:39:50.287Z,100.00
2022-08-28T04:42:17.908Z,100.00
2022-08-28T04:44:45.538Z,100.00
2022-08-28T04:47:14.515Z,100.00
2022-08-28T04:49:42.118Z,100.00
2022-08-28T04:52:10.612Z,100.00
2022-08-28T04:54:38.591Z,100.00
2022-08-28T04:57:06.642Z,100.00
2022-08-28T04:59:34.312Z,100.00
2022-08-28T05:02:02.277Z,100.00
2022-08-28T05:04:31.286Z,100.00
2022-08-28T05:06:58.872Z,100.00
2022-08-28T05:09:26.448Z,100.00
2022-08-28T05:11:54.107Z,100.00
2022-08-28T05:14:22.098Z,100.00
2022-08-28T05:16:52.736Z,100.00
2022-08-28T05:19:21.829Z,100.00
2022-08-28T05:21:51.147Z,100.00
2022-08-28T05:24:19.420Z,100.00
2022-08-28T05:26:48.064Z,100.00
2022-08-28T05:29:16.897Z,100.00
2022-08-28T05:31:46.290Z,100.00
2022-08-28T05:34:15.111Z,100.00
2022-08-28T05:36:42.875Z,100.00
2022-08-28T05:39:12.922Z,100.00
2022-08-28T05:41:43.150Z,100.00
2022-08-28T05:44:13.027Z,100.00
2022-08-28T05:46:42.577Z,100.00
2022-08-28T05:49:10.628Z,100.00
2022-08-28T05:51:40.747Z,100.00
2022-08-28T05:54:08.704Z,100.00
2022-08-28T05:56:40.443Z,100.00
2022-08-28T05:59:09.378Z,100.00
2022-08-28T06:01:40.370Z,100.00
2022-08-28T06:04:09.898Z,100.00
2022-08-28T06:06:39.495Z,100.00
2022-08-28T06:09:09.019Z,100.00
2022-08-28T06:11:38.823Z,100.00
2022-08-28T06:14:13.471Z,100.00
2022-08-28T06:16:45.467Z,95.21
2022-08-28T06:19:13.919Z,81.66
2022-08-28T06:21:42.471Z,67.65
2022-08-28T06:24:10.442Z,77.96
2022-08-28T06:26:39.524Z,76.58
2022-08-28T06:29:08.927Z,65.61
2022-08-28T06:31:36.678Z,69.36
2022-08-28T06:34:04.747Z,82.10
2022-08-28T06:36:34.351Z,93.58
2022-08-28T06:39:03.630Z,100.00
2022-08-28T06:41:33.023Z,100.00
2022-08-28T06:44:02.112Z,100.00
2022-08-28T06:46:30.388Z,100.00
2022-08-28T06:48:57.976Z,100.00
2022-08-28T06:51:25.604Z,100.00
2022-08-28T06:53:53.220Z,100.00
2022-08-28T06:56:25.485Z,100.00
2022-08-28T06:58:53.592Z,100.00
2022-08-28T07:01:24.354Z,100.00
2022-08-28T07:03:53.372Z,100.00
2022-08-28T07:06:22.125Z,100.00
2022-08-28T07:08:50.861Z,100.00
2022-08-28T07:11:21.927Z,100.00
2022-08-28T07:13:54.321Z,100.00
2022-08-28T07:16:25.842Z,100.00
2022-08-28T07:18:53.487Z,100.00
2022-08-28T07:21:21.427Z,100.00
2022-08-28T07:23:49.384Z,100.00
2022-08-28T07:26:19.079Z,100.00
2022-08-28T07:28:46.738Z,100.00
2022-08-28T07:31:18.396Z,100.00
2022-08-28T07:33:47.675Z,100.00
2022-08-28T07:36:29.757Z,100.00
2022-08-28T07:38:58.296Z,100.00
2022-08-28T07:41:27.955Z,100.00
2022-08-28T07:44:13.263Z,100.00
2022-08-28T07:46:41.070Z,100.00
2022-08-28T07:49:10.748Z,100.00
2022-08-28T07:51:38.561Z,100.00
2022-08-28T07:54:06.532Z,100.00
2022-08-28T07:56:40.553Z,100.00
2022-08-28T07:59:09.724Z,100.00
2022-08-28T08:01:39.190Z,100.00
2022-08-28T08:04:07.398Z,100.00
2022-08-28T08:06:37.833Z,100.00
2022-08-28T08:09:07.064Z,100.00
2022-08-28T08:11:35.472Z,100.00
2022-08-28T08:14:05.903Z,93.99
2022-08-28T08:16:35.488Z,98.51
2022-08-28T08:19:03.888Z,90.86
2022-08-28T08:21:32.238Z,85.51
2022-08-28T08:24:01.202Z,83.67
2022-08-28T08:26:29.522Z,83.13
2022-08-28T08:28:57.611Z,80.98
2022-08-28T08:31:26.965Z,78.81
2022-08-28T08:33:56.670Z,77.85
2022-08-28T08:36:26.035Z,74.94
2022-08-28T08:38:59.406Z,74.40
2022-08-28T08:41:31.231Z,73.55
2022-08-28T08:44:02.198Z,74.04
2022-08-28T08:46:35.450Z,72.97
2022-08-28T08:49:05.912Z,71.55
2022-08-28T08:51:42.331Z,70.49
2022-08-28T08:54:12.404Z,69.83
2022-08-28T08:56:43.101Z,69.40
2022-08-28T08:59:14.820Z,67.33
2022-08-28T09:01:45.570Z,66.23
2022-08-28T09:04:24.636Z,66.87
2022-08-28T09:06:55.807Z,69.11
2022-08-28T09:09:28.639Z,68.97
2022-08-28T09:12:00.590Z,71.00
2022-08-28T09:14:36.315Z,69.11
2022-08-28T09:17:04.526Z,67.63
2022-08-28T09:19:32.531Z,64.72
2022-08-28T09:22:00.268Z,65.63
2022-08-28T09:24:30.454Z,64.43
2022-08-28T09:27:01.450Z,65.67
2022-08-28T09:29:32.784Z,67.18
2022-08-28T09:32:17.836Z,66.55
2022-08-28T09:35:01.454Z,66.95
2022-08-28T09:37:32.250Z,66.37
2022-08-28T09:40:18.897Z,68.78
2022-08-28T09:43:20.017Z,67.17
2022-08-28T09:45:53.760Z,68.06
2022-08-28T09:48:23.224Z,64.81
2022-08-28T09:50:59.267Z,66.29
2022-08-28T09:53:30.635Z,60.13
2022-08-28T09:56:04.627Z,55.86
2022-08-28T09:58:36.722Z,54.41
2022-08-28T10:01:12.849Z,52.45
2022-08-28T10:03:46.790Z,55.21
2022-08-28T10:06:16.610Z,55.27
2022-08-28T10:08:55.031Z,57.00
2022-08-28T10:11:32.343Z,57.30
2022-08-28T10:14:11.529Z,55.66
2022-08-28T10:16:48.121Z,51.93
2022-08-28T10:19:24.047Z,49.84
2022-08-28T10:21:57.367Z,50.95
2022-08-28T10:24:37.323Z,50.63
2022-08-28T10:27:12.327Z,49.44
2022-08-28T10:29:51.504Z,51.80
2022-08-28T10:32:39.959Z,52.72
2022-08-28T10:35:12.737Z,50.90
2022-08-28T10:37:48.763Z,50.04
2022-08-28T10:40:18.335Z,49.13
2022-08-28T10:42:48.287Z,49.29
2022-08-28T10:45:20.254Z,48.64
2022-08-28T10:47:50.397Z,49.16
2022-08-28T10:50:23.619Z,50.41
2022-08-28T10:52:57.595Z,51.10
2022-08-28T10:55:32.280Z,51.47
2022-08-28T10:58:04.961Z,50.25
2022-08-28T11:00:55.820Z,48.64
2022-08-28T11:03:34.349Z,47.71
2022-08-28T11:06:05.857Z,47.87
2022-08-28T11:08:38.530Z,46.00
2022-08-28T11:11:14.427Z,46.21
2022-08-28T11:13:56.138Z,45.40
2022-08-28T11:16:27.901Z,47.29
2022-08-28T11:19:30.045Z,48.20
2022-08-28T11:22:01.287Z,49.08
2022-08-28T11:24:36.159Z,47.86
2022-08-28T11:27:18.649Z,46.71
2022-08-28T11:30:18.751Z,48.01
2022-08-28T11:33:02.401Z,45.20
2022-08-28T11:35:46.233Z,45.53
2022-08-28T11:38:16.455Z,44.52
2022-08-28T11:40:53.335Z,45.13
2022-08-28T11:43:40.216Z,44.46
2022-08-28T11:46:24.545Z,44.10
2022-08-28T11:48:54.699Z,44.10
2022-08-28T11:51:37.273Z,44.22
2022-08-28T11:54:17.224Z,44.17
2022-08-28T11:56:52.845Z,44.54
2022-08-28T11:59:41.058Z,44.05
2022-08-28T12:02:40.625Z,44.51
2022-08-28T12:05:11.718Z,44.78
2022-08-28T12:07:40.567Z,42.71
2022-08-28T12:10:51.502Z,41.43
2022-08-28T12:13:44.671Z,41.65
2022-08-28T12:16:12.645Z,41.67
2022-08-28T12:19:04.426Z,40.94
2022-08-28T12:21:39.167Z,41.67
2022-08-28T12:24:16.766Z,42.33
2022-08-28T12:26:48.203Z,41.34
2022-08-28T12:29:28.947Z,40.09
2022-08-28T12:32:16.321Z,40.75
2022-08-28T12:34:50.730Z,40.66
2022-08-28T12:37:30.386Z,41.68
2022-08-28T12:40:00.835Z,43.19
2022-08-28T12:42:32.411Z,43.41
2022-08-28T12:45:02.595Z,43.19
2022-08-28T12:47:30.739Z,42.55
2022-08-28T12:49:58.472Z,41.85
2022-08-28T12:52:27.766Z,43.02
2022-08-28T12:54:56.398Z,41.41
2022-08-28T12:57:25.479Z,42.39
2022-08-28T12:59:55.444Z,41.52
2022-08-28T13:02:27.624Z,42.15
2022-08-28T13:04:58.060Z,41.12
2022-08-28T13:07:30.057Z,39.87
2022-08-28T13:10:00.366Z,40.49
2022-08-28T13:12:54.680Z,42.14
2022-08-28T13:15:45.634Z,41.04
2022-08-28T13:18:38.659Z,40.73
2022-08-28T13:21:33.455Z,41.40
2022-08-28T13:24:26.092Z,42.87
2022-08-28T13:27:02.742Z,44.14
2022-08-28T13:29:30.988Z,44.44
2022-08-28T13:32:00.732Z,45.08
2022-08-28T13:34:30.095Z,44.58
2022-08-28T13:36:59.759Z,44.01
2022-08-28T13:39:31.641Z,43.55
2022-08-28T13:42:02.148Z,41.50
2022-08-28T13:44:33.411Z,41.03
2022-08-28T13:47:02.123Z,40.71
2022-08-28T13:49:29.967Z,40.78
2022-08-28T13:51:59.501Z,42.07
2022-08-28T13:54:29.083Z,41.87
2022-08-28T13:56:57.035Z,41.84
2022-08-28T13:59:24.738Z,41.36
2022-08-28T14:02:12.951Z,41.35
2022-08-28T14:04:40.620Z,41.67
2022-08-28T14:07:08.258Z,42.29
2022-08-28T14:09:37.254Z,43.49
2022-08-28T14:12:06.399Z,42.21
2022-08-28T14:14:34.024Z,40.88
2022-08-28T14:17:02.331Z,39.21
2022-08-28T14:19:30.471Z,41.15
2022-08-28T14:21:58.532Z,40.90
2022-08-28T14:24:26.579Z,40.78
2022-08-28T14:26:56.419Z,40.99
2022-08-28T14:29:24.144Z,40.20
2022-08-28T14:31:51.863Z,40.23
2022-08-28T14:34:22.304Z,40.96
2022-08-28T14:36:54.876Z,42.00
2022-08-28T14:39:23.519Z,40.69
2022-08-28T14:41:51.669Z,40.10
2022-08-28T14:44:21.335Z,40.49
2022-08-28T14:46:50.301Z,39.57
2022-08-28T14:51:36.229Z,40.94
2022-08-28T14:54:05.770Z,44.02
2022-08-28T14:56:33.540Z,45.10
2022-08-28T14:59:02.289Z,45.66
2022-08-28T15:01:40.375Z,44.71
2022-08-28T15:04:10.900Z,44.48
2022-08-28T15:06:42.351Z,44.71
2022-08-28T15:09:10.791Z,44.71
2022-08-28T15:11:39.222Z,45.77
2022-08-28T15:14:08.620Z,46.66
2022-08-28T15:16:39.315Z,47.15
2022-08-28T15:19:11.533Z,46.20
2022-08-28T15:21:43.075Z,45.71
2022-08-28T15:24:10.775Z,44.00
2022-08-28T15:26:40.044Z,43.38
2022-08-28T15:29:08.128Z,46.25
2022-08-28T15:31:38.814Z,47.14
2022-08-28T15:34:13.431Z,47.67
2022-08-28T15:36:43.131Z,45.92
2022-08-28T15:39:28.635Z,45.99
2022-08-28T15:41:56.468Z,45.44
2022-08-28T15:44:24.135Z,47.31
2022-08-28T15:46:53.210Z,47.94
2022-08-28T15:49:23.772Z,48.20
2022-08-28T15:51:53.516Z,48.18
2022-08-28T15:54:22.114Z,48.39
2022-08-28T15:56:50.744Z,48.54
2022-08-28T15:59:21.904Z,48.98
2022-08-28T16:01:51.577Z,50.51
2022-08-28T16:04:20.420Z,52.17
2022-08-28T16:06:48.015Z,53.95
2022-08-28T16:09:16.948Z,54.98
2022-08-28T16:11:44.606Z,55.79
2022-08-28T16:14:15.868Z,55.47
2022-08-28T16:16:46.378Z,55.50
2022-08-28T16:19:16.823Z,55.66
2022-08-28T16:21:44.797Z,54.87
2022-08-28T16:24:12.447Z,53.74
2022-08-28T16:26:41.380Z,51.97
2022-08-28T16:29:09.091Z,52.79
2022-08-28T16:31:37.092Z,53.34
2022-08-28T16:34:05.140Z,54.95
2022-08-28T16:36:33.212Z,57.73
2022-08-28T16:39:04.084Z,60.06
2022-08-28T16:41:32.265Z,60.06
2022-08-28T16:44:01.276Z,59.07
2022-08-28T16:46:29.335Z,60.19
2022-08-28T16:48:57.016Z,62.14
2022-08-28T16:51:26.799Z,64.50
2022-08-28T16:53:54.638Z,65.64
2022-08-28T16:56:26.330Z,66.45
2022-08-28T16:58:53.936Z,65.65
2022-08-28T17:01:24.125Z,66.47
2022-08-28T17:03:52.740Z,65.38
2022-08-28T17:06:23.309Z,66.45
2022-08-28T17:08:55.873Z,68.57
2022-08-28T17:11:25.520Z,70.76
2022-08-28T17:13:53.337Z,72.17
2022-08-28T17:16:23.824Z,72.06
2022-08-28T17:18:52.417Z,73.24
2022-08-28T17:21:37.979Z,75.50
2022-08-28T17:24:06.687Z,77.39
2022-08-28T17:26:34.261Z,77.69
2022-08-28T17:29:02.248Z,78.03
2022-08-28T17:31:31.308Z,77.03
2022-08-28T17:33:58.915Z,76.74
2022-08-28T17:36:33.421Z,75.75
2022-08-28T17:39:02.500Z,74.97
2022-08-28T17:41:30.108Z,73.58
2022-08-28T17:43:58.197Z,75.07
2022-08-28T17:46:26.446Z,74.74
2022-08-28T17:48:56.417Z,75.10
2022-08-28T17:51:42.661Z,74.47
2022-08-28T17:54:12.161Z,74.69
2022-08-28T17:56:40.066Z,75.66
2022-08-28T17:59:07.688Z,74.78
2022-08-28T18:01:35.961Z,77.47
2022-08-28T18:04:06.127Z,78.35
2022-08-28T18:06:34.265Z,79.74
2022-08-28T18:09:02.077Z,81.33
2022-08-28T18:11:29.826Z,83.60
2022-08-28T18:13:57.434Z,83.69
2022-08-28T18:16:30.351Z,84.93
2022-08-28T18:18:58.928Z,86.27
2022-08-28T18:21:29.009Z,86.19
2022-08-28T18:23:56.734Z,88.31
2022-08-28T18:26:24.560Z,89.81
2022-08-28T18:28:52.536Z,90.40
2022-08-28T18:31:20.648Z,93.47
2022-08-28T18:33:48.364Z,96.08
2022-08-28T18:36:16.542Z,96.04
2022-08-28T18:38:47.022Z,97.49
2022-08-28T18:41:14.650Z,97.54
2022-08-28T18:43:42.398Z,98.94
2022-08-28T18:46:10.684Z,100.00
2022-08-28T18:48:38.762Z,100.00
2022-08-28T18:51:07.609Z,100.00
2022-08-28T18:53:35.628Z,100.00
2022-08-28T18:56:05.371Z,100.00
2022-08-28T18:58:33.115Z,100.00
2022-08-28T19:01:02.100Z,100.00
2022-08-28T19:03:30.098Z,100.00
2022-08-28T19:05:57.862Z,100.00
2022-08-28T19:08:25.655Z,100.00
2022-08-28T19:10:53.895Z,100.00
2022-08-28T19:13:23.195Z,100.00
2022-08-28T19:15:52.581Z,100.00
2022-08-28T19:18:20.951Z,100.00
2022-08-28T19:20:48.669Z,100.00
2022-08-28T19:23:17.826Z,100.00
2022-08-28T19:25:48.320Z,100.00
2022-08-28T19:28:16.026Z,100.00
2022-08-28T19:30:47.191Z,100.00
2022-08-28T19:33:14.856Z,100.00
2022-08-28T19:35:42.428Z,100.00
2022-08-28T19:38:10.234Z,100.00
2022-08-28T19:40:39.018Z,100.00
2022-08-28T19:43:06.663Z,100.00
2022-08-28T19:45:38.252Z,100.00
2022-08-28T19:48:07.367Z,100.00
2022-08-28T19:50:35.237Z,100.00
2022-08-28T19:53:03.284Z,100.00
2022-08-28T19:55:31.277Z,100.00
2022-08-28T19:57:59.133Z,100.00
2022-08-28T20:00:29.237Z,100.00
2022-08-28T20:02:57.700Z,100.00
2022-08-28T20:05:26.714Z,100.00
2022-08-28T20:07:54.363Z,100.00
2022-08-28T20:10:22.313Z,100.00
2022-08-28T20:12:50.285Z,100.00
2022-08-28T20:15:19.419Z,100.00
2022-08-28T20:17:50.053Z,100.00
2022-08-28T20:20:18.213Z,100.00
2022-08-28T20:22:47.272Z,100.00
2022-08-28T20:25:18.048Z,100.00
2022-08-28T20:27:45.841Z,100.00
2022-08-28T20:30:14.246Z,100.00
2022-08-28T20:32:41.887Z,100.00
2022-08-28T20:35:11.513Z,100.00
2022-08-28T20:37:44.550Z,100.00
2022-08-28T20:40:17.849Z,100.00
2022-08-28T20:42:45.954Z,100.00
2022-08-28T20:45:15.298Z,100.00
2022-08-28T20:47:42.966Z,100.00
2022-08-28T20:50:11.401Z,100.00
2022-08-28T20:52:39.550Z,100.00
2022-08-28T20:55:09.297Z,100.00
2022-08-28T20:57:38.227Z,100.00
2022-08-28T21:00:08.751Z,100.00
2022-08-28T21:02:37.254Z,100.00
2022-08-28T21:05:06.205Z,100.00
2022-08-28T21:07:35.147Z,100.00
2022-08-28T21:10:06.985Z,100.00
2022-08-28T21:12:35.983Z,100.00
2022-08-28T21:15:06.586Z,100.00
2022-08-28T21:17:34.386Z,100.00
2022-08-28T21:20:04.304Z,100.00
2022-08-28T21:22:35.935Z,100.00
2022-08-28T21:25:04.055Z,100.00
2022-08-28T21:27:31.743Z,100.00
2022-08-28T21:30:00.657Z,100.00
2022-08-28T21:32:30.531Z,100.00
2022-08-28T21:34:58.351Z,100.00
2022-08-28T21:37:25.947Z,100.00
2022-08-28T21:39:53.921Z,100.00
2022-08-28T21:42:25.106Z,100.00
2022-08-28T21:44:54.352Z,100.00
2022-08-28T21:47:23.359Z,100.00
2022-08-28T21:49:53.164Z,100.00
2022-08-28T21:52:21.796Z,100.00
2022-08-28T21:54:49.563Z,100.00
2022-08-28T21:57:17.647Z,100.00
2022-08-28T21:59:45.296Z,100.00
2022-08-28T22:02:12.952Z,100.00
2022-08-28T22:04:40.577Z,100.00
2022-08-28T22:07:11.108Z,100.00
2022-08-28T22:09:38.758Z,100.00
2022-08-28T22:12:06.660Z,100.00
2022-08-28T22:14:34.278Z,100.00
2022-08-28T22:17:01.924Z,100.00
2022-08-28T22:19:29.575Z,100.00
2022-08-28T22:22:14.932Z,100.00
2022-08-28T22:24:43.886Z,100.00
2022-08-28T22:27:13.435Z,100.00
2022-08-28T22:29:41.084Z,100.00
2022-08-28T22:32:09.260Z,100.00
2022-08-28T22:34:39.441Z,100.00
2022-08-28T22:37:07.089Z,100.00
2022-08-28T22:39:34.688Z,100.00
2022-08-28T22:42:03.635Z,100.00
2022-08-28T22:44:31.260Z,100.00
2022-08-28T22:46:59.323Z,100.00
2022-08-28T22:49:27.059Z,100.00
2022-08-28T22:51:54.724Z,100.00
2022-08-28T22:54:22.354Z,100.00
2022-08-28T22:56:49.932Z,100.00
2022-08-28T22:59:19.075Z,100.00
2022-08-28T23:01:46.694Z,100.00
2022-08-28T23:04:14.307Z,100.00
2022-08-28T23:06:42.049Z,100.00
2022-08-28T23:09:09.684Z,100.00
2022-08-28T23:11:38.339Z,100.00
2022-08-28T23:14:06.498Z,100.00
2022-08-28T23:16:36.019Z,100.00
2022-08-28T23:19:08.789Z,100.00
2022-08-28T23:21:43.403Z,100.00
2022-08-28T23:24:11.711Z,100.00
2022-08-28T23:26:39.269Z,100.00
2022-08-28T23:29:06.872Z,100.00
2022-08-28T23:31:36.294Z,100.00
2022-08-28T23:34:04.998Z,100.00
2022-08-28T23:36:35.583Z,100.00
2022-08-28T23:39:03.600Z,100.00
2022-08-28T23:41:31.395Z,100.00
2022-08-28T23:43:59.019Z,100.00
2022-08-28T23:46:26.631Z,100.00
2022-08-28T23:48:55.699Z,100.00
2022-08-28T23:51:23.774Z,100.00
2022-08-28T23:53:52.962Z,100.00
2022-08-28T23:56:20.543Z,100.00
2022-08-28T23:58:48.144Z,100.00
